Time;durP1;ratioP1;P1;durP2;ratioP2;P2;SDS_P1;SDS_P2;PMS_P1;PMS_P2;Temp;Humidity;BMP_temperature;BMP_pressure;BME280_temperature;BME280_humidity;BME280_pressure;Samples;Min_cycle;Max_cycle;Signal;HPM_P1;HPM_P2
2021/06/30 00:02:20;;;;;;;1.15;0.82;;;16.70;99.90;;;;;;6310731;22;20118;-91
2021/06/30 00:04:46;;;;;;;1.05;0.80;;;16.70;99.90;;;;;;6309991;22;20034;-90
2021/06/30 00:07:12;;;;;;;1.52;0.90;;;16.70;99.90;;;;;;6310305;22;20042;-92
2021/06/30 00:09:38;;;;;;;1.00;0.70;;;16.70;99.90;;;;;;6310013;22;20025;-90
2021/06/30 00:12:05;;;;;;;1.02;0.77;;;16.70;99.90;;;;;;6310952;22;19999;-91
2021/06/30 00:14:30;;;;;;;1.48;0.80;;;16.70;99.90;;;;;;6314230;22;20006;-91
2021/06/30 00:16:57;;;;;;;4.10;1.20;;;16.70;99.90;;;;;;6314136;22;20081;-90
2021/06/30 00:19:26;;;;;;;1.50;0.80;;;16.60;99.90;;;;;;6314295;22;20011;-91
2021/06/30 00:22:00;;;;;;;1.00;0.90;;;16.60;99.90;;;;;;6314008;22;20071;-90
2021/06/30 00:24:30;;;;;;;0.80;0.70;;;16.60;99.90;;;;;;6313920;22;20094;-90
2021/06/30 00:26:56;;;;;;;1.00;0.82;;;16.60;99.90;;;;;;6313094;22;20013;-91
2021/06/30 00:29:22;;;;;;;1.38;1.00;;;16.60;99.90;;;;;;6313746;22;20006;-90
2021/06/30 00:31:48;;;;;;;1.35;1.00;;;16.50;99.90;;;;;;6313629;22;20060;-90
2021/06/30 00:34:13;;;;;;;0.60;0.60;;;16.50;99.90;;;;;;6314583;22;20507;-90
2021/06/30 00:36:47;;;;;;;1.90;0.88;;;16.40;99.90;;;;;;6314211;22;20038;-90
2021/06/30 00:39:17;;;;;;;1.30;0.80;;;16.40;99.90;;;;;;6313777;22;20002;-90
2021/06/30 00:41:44;;;;;;;1.85;1.00;;;16.40;99.90;;;;;;6312025;22;20121;-92
2021/06/30 00:44:11;;;;;;;1.70;0.80;;;16.40;99.90;;;;;;6313025;22;19998;-91
2021/06/30 00:46:37;;;;;;;1.90;0.90;;;16.40;99.90;;;;;;6313442;22;20003;-90
2021/06/30 00:49:06;;;;;;;2.00;1.00;;;16.30;99.90;;;;;;6313660;22;20367;-92
2021/06/30 00:51:37;;;;;;;2.17;0.90;;;16.20;99.90;;;;;;6313436;22;20007;-93
2021/06/30 00:54:06;;;;;;;1.65;0.82;;;16.20;99.90;;;;;;6313524;22;20379;-92
2021/06/30 00:56:49;;;;;;;;;;;;;;;;;;;;;
2021/06/30 00:59:33;;;;;;;1.88;0.90;;;16.20;99.90;;;;;;6341580;22;20464;-91
2021/06/30 01:02:02;;;;;;;1.80;1.05;;;16.20;99.90;;;;;;6313992;22;20089;-91
2021/06/30 01:04:28;;;;;;;2.13;1.05;;;16.20;99.90;;;;;;6313117;22;20306;-91
2021/06/30 01:06:54;;;;;;;0.98;0.82;;;16.20;99.90;;;;;;6314410;22;20041;-92
2021/06/30 01:09:20;;;;;;;1.20;0.68;;;16.20;99.90;;;;;;6314045;22;19999;-91
2021/06/30 01:11:46;;;;;;;1.65;0.95;;;16.20;99.90;;;;;;6313777;22;20032;-91
2021/06/30 01:14:12;;;;;;;1.30;1.00;;;16.20;99.90;;;;;;6312812;22;20355;-91
2021/06/30 01:16:37;;;;;;;1.73;0.90;;;16.20;99.90;;;;;;6313951;22;20013;-90
2021/06/30 01:19:03;;;;;;;1.50;1.00;;;16.20;99.90;;;;;;6314181;22;20081;-92
2021/06/30 01:21:29;;;;;;;2.00;1.15;;;16.10;99.90;;;;;;6313629;22;20022;-90
2021/06/30 01:23:54;;;;;;;1.67;0.82;;;16.10;99.90;;;;;;6313405;22;20007;-92
2021/06/30 01:26:20;;;;;;;3.78;1.20;;;16.00;99.90;;;;;;6313356;22;20007;-92
2021/06/30 01:28:46;;;;;;;1.55;1.00;;;16.10;99.90;;;;;;6313683;22;20068;-92
2021/06/30 01:31:14;;;;;;;2.40;1.02;;;16.00;99.90;;;;;;6314139;22;20011;-92
2021/06/30 01:33:40;;;;;;;1.45;0.90;;;16.00;99.90;;;;;;6313732;22;20090;-91
2021/06/30 01:36:06;;;;;;;1.35;0.80;;;16.10;99.90;;;;;;6312985;22;19999;-91
2021/06/30 01:38:34;;;;;;;3.28;1.00;;;16.10;99.90;;;;;;6313869;22;20378;-92
2021/06/30 01:41:01;;;;;;;1.52;1.00;;;16.10;99.90;;;;;;6313657;22;20046;-90
2021/06/30 01:43:26;;;;;;;1.85;1.13;;;16.10;99.90;;;;;;6340993;22;20009;-91
2021/06/30 01:45:53;;;;;;;2.35;1.10;;;16.00;99.90;;;;;;6313708;22;20101;-91
2021/06/30 01:48:20;;;;;;;1.83;1.00;;;16.00;99.90;;;;;;6314348;22;20413;-92
2021/06/30 01:50:52;;;;;;;1.63;1.20;;;16.00;99.90;;;;;;6313771;22;20006;-92
2021/06/30 01:53:18;;;;;;;2.13;1.40;;;16.00;99.90;;;;;;6313939;22;20006;-91
2021/06/30 01:55:44;;;;;;;2.55;1.35;;;15.90;99.90;;;;;;6331067;22;19998;-92
2021/06/30 01:58:10;;;;;;;1.55;1.10;;;15.90;99.90;;;;;;6317744;22;20011;-93
2021/06/30 02:00:36;;;;;;;4.32;1.77;;;15.90;99.90;;;;;;6336986;22;20039;-91
2021/06/30 02:03:02;;;;;;;4.45;2.20;;;15.90;99.90;;;;;;6339346;22;20034;-92
2021/06/30 02:05:27;;;;;;;1.85;1.20;;;15.90;99.90;;;;;;6319427;22;19999;-92
2021/06/30 02:08:00;;;;;;;1.73;1.00;;;15.80;99.90;;;;;;6327777;22;20021;-93
2021/06/30 02:10:26;;;;;;;1.90;1.33;;;15.80;99.90;;;;;;6340086;22;20047;-92
2021/06/30 02:12:52;;;;;;;1.60;1.27;;;15.80;99.90;;;;;;6340373;22;20046;-91
2021/06/30 02:15:24;;;;;;;3.22;1.10;;;15.70;99.90;;;;;;6340133;22;19986;-92
2021/06/30 02:17:50;;;;;;;2.33;0.95;;;15.80;99.90;;;;;;6340321;22;20002;-92
2021/06/30 02:20:17;;;;;;;1.15;0.98;;;15.80;99.90;;;;;;6340085;22;20051;-91
2021/06/30 02:22:45;;;;;;;2.90;1.10;;;15.90;99.90;;;;;;6340320;22;20014;-90
2021/06/30 02:25:14;;;;;;;1.17;1.00;;;15.90;99.90;;;;;;6340034;22;20007;-91
2021/06/30 02:27:43;;;;;;;2.13;1.05;;;16.00;99.90;;;;;;6334345;22;20018;-92
2021/06/30 02:30:14;;;;;;;1.55;1.02;;;16.00;99.90;;;;;;6326971;22;20094;-91
2021/06/30 02:32:41;;;;;;;2.42;1.30;;;15.90;99.90;;;;;;6310090;22;20041;-91
2021/06/30 02:35:10;;;;;;;2.25;1.15;;;15.90;99.90;;;;;;6309454;22;20023;-91
2021/06/30 02:37:37;;;;;;;0.98;0.88;;;15.80;99.90;;;;;;6308954;22;20008;-91
2021/06/30 02:40:09;;;;;;;1.98;1.13;;;15.80;99.90;;;;;;6310437;22;20049;-91
2021/06/30 02:42:35;;;;;;;1.48;0.90;;;15.80;99.90;;;;;;6308757;22;20015;-90
2021/06/30 02:45:01;;;;;;;2.30;1.00;;;15.80;99.90;;;;;;6308609;22;20483;-90
2021/06/30 02:47:26;;;;;;;3.22;1.13;;;15.70;99.90;;;;;;6308482;22;20498;-90
2021/06/30 02:49:52;;;;;;;1.70;1.38;;;15.70;99.90;;;;;;6308578;22;20029;-91
2021/06/30 02:52:18;;;;;;;1.85;1.35;;;15.60;99.90;;;;;;6308236;22;19999;-91
2021/06/30 02:54:43;;;;;;;1.83;1.33;;;15.60;99.90;;;;;;6308107;22;20050;-90
2021/06/30 02:57:15;;;;;;;1.73;1.23;;;15.60;99.90;;;;;;6308204;22;20090;-92
2021/06/30 02:59:43;;;;;;;1.60;1.00;;;15.60;99.90;;;;;;6308260;22;20007;-92
2021/06/30 03:02:08;;;;;;;1.25;0.95;;;15.50;99.90;;;;;;6308821;22;20007;-91
2021/06/30 03:04:36;;;;;;;1.80;1.30;;;15.60;99.90;;;;;;6308874;22;20479;-91
2021/06/30 03:07:02;;;;;;;1.25;0.85;;;15.60;99.90;;;;;;6308807;22;19995;-92
2021/06/30 03:09:28;;;;;;;1.13;0.90;;;15.60;99.90;;;;;;6307991;22;20002;-93
2021/06/30 03:11:53;;;;;;;1.38;1.00;;;15.60;99.90;;;;;;6309140;22;20388;-93
2021/06/30 03:14:20;;;;;;;1.00;0.90;;;15.70;99.90;;;;;;6308596;22;20003;-92
2021/06/30 03:16:47;;;;;;;2.65;1.40;;;15.70;99.90;;;;;;6308990;22;20007;-91
2021/06/30 03:19:13;;;;;;;2.13;1.45;;;15.60;99.90;;;;;;6308241;22;20011;-93
2021/06/30 03:21:39;;;;;;;2.13;1.55;;;15.50;99.90;;;;;;6307720;22;20323;-93
2021/06/30 03:24:05;;;;;;;1.60;1.02;;;15.50;99.90;;;;;;6282459;22;20077;-92
2021/06/30 03:26:30;;;;;;;1.33;1.00;;;15.50;99.90;;;;;;6307429;22;20015;-90
2021/06/30 03:28:56;;;;;;;3.63;1.55;;;15.50;99.90;;;;;;6307419;22;20019;-91
2021/06/30 03:31:22;;;;;;;2.35;1.33;;;15.50;99.90;;;;;;6308082;22;20046;-91
2021/06/30 03:33:47;;;;;;;2.03;1.40;;;15.50;99.90;;;;;;6307624;22;20442;-91
2021/06/30 03:36:13;;;;;;;2.33;1.30;;;15.50;99.90;;;;;;6307605;22;19996;-92
2021/06/30 03:38:39;;;;;;;1.90;1.48;;;15.60;99.90;;;;;;6307339;22;20003;-90
2021/06/30 03:41:04;;;;;;;1.77;1.40;;;15.50;99.90;;;;;;6307114;22;20050;-90
2021/06/30 03:43:30;;;;;;;2.10;1.63;;;15.40;99.90;;;;;;6307364;22;20003;-90
2021/06/30 03:45:55;;;;;;;1.70;1.40;;;15.40;99.90;;;;;;6307422;22;20049;-91
2021/06/30 03:48:21;;;;;;;1.58;1.30;;;15.40;99.90;;;;;;6307422;22;20043;-91
2021/06/30 03:50:47;;;;;;;2.50;1.58;;;15.40;99.90;;;;;;6307609;22;20029;-91
2021/06/30 03:53:12;;;;;;;2.70;1.60;;;15.30;99.90;;;;;;6307483;22;20013;-90
2021/06/30 03:55:38;;;;;;;2.33;1.65;;;15.30;99.90;;;;;;6307692;22;20007;-91
2021/06/30 03:58:03;;;;;;;2.35;1.25;;;15.30;99.90;;;;;;6307786;22;20186;-91
2021/06/30 04:00:29;;;;;;;2.00;1.30;;;15.30;99.90;;;;;;6307772;22;20003;-91
2021/06/30 04:02:55;;;;;;;1.95;1.52;;;15.40;99.90;;;;;;6307747;22;20019;-92
2021/06/30 04:05:22;;;;;;;2.22;1.50;;;15.40;99.90;;;;;;6307275;22;20010;-91
2021/06/30 04:07:47;;;;;;;1.73;1.30;;;15.40;99.90;;;;;;6307467;22;20471;-90
2021/06/30 04:10:13;;;;;;;1.95;1.40;;;15.50;99.90;;;;;;6307426;22;20027;-91
2021/06/30 04:12:39;;;;;;;1.75;1.20;;;15.50;99.90;;;;;;6307792;22;20172;-91
2021/06/30 04:15:06;;;;;;;2.42;1.40;;;15.50;99.90;;;;;;6307680;22;20074;-91
2021/06/30 04:17:32;;;;;;;1.63;1.25;;;15.50;99.90;;;;;;6307280;22;20086;-91
2021/06/30 04:19:58;;;;;;;2.33;1.75;;;15.50;99.90;;;;;;6308004;22;20010;-91
2021/06/30 04:22:23;;;;;;;2.08;1.52;;;15.50;99.90;;;;;;6309262;22;20153;-91
2021/06/30 04:24:49;;;;;;;1.90;1.35;;;15.50;99.90;;;;;;6309562;22;20003;-91
2021/06/30 04:27:15;;;;;;;1.95;1.60;;;15.50;99.90;;;;;;6313148;22;20075;-91
2021/06/30 04:29:40;;;;;;;1.90;1.33;;;15.50;99.90;;;;;;6314034;22;19999;-92
2021/06/30 04:32:06;;;;;;;2.05;1.60;;;15.40;99.90;;;;;;6314085;22;20006;-90
2021/06/30 04:34:32;;;;;;;3.38;1.42;;;15.40;99.90;;;;;;6313756;22;20158;-90
2021/06/30 04:36:57;;;;;;;1.45;1.30;;;15.40;99.90;;;;;;6314281;22;20007;-91
2021/06/30 04:39:27;;;;;;;1.30;1.10;;;15.40;99.90;;;;;;6313687;22;20425;-91
2021/06/30 04:41:52;;;;;;;2.35;1.50;;;15.40;99.90;;;;;;6313716;22;20452;-90
2021/06/30 04:44:18;;;;;;;2.08;1.60;;;15.40;99.90;;;;;;6313869;22;20005;-90
2021/06/30 04:46:43;;;;;;;2.70;1.55;;;15.40;99.90;;;;;;6314014;22;20445;-90
2021/06/30 04:49:09;;;;;;;3.03;1.70;;;15.50;99.90;;;;;;6314033;22;20002;-90
2021/06/30 04:51:34;;;;;;;2.70;1.30;;;15.50;99.90;;;;;;6313801;22;20042;-91
2021/06/30 04:54:00;;;;;;;3.38;1.60;;;15.50;99.90;;;;;;6313916;22;19999;-91
2021/06/30 04:56:29;;;;;;;2.33;1.63;;;15.50;99.90;;;;;;6313898;22;20474;-90
2021/06/30 04:58:55;;;;;;;2.97;1.60;;;15.50;99.90;;;;;;6312910;22;20010;-94
2021/06/30 05:01:22;;;;;;;2.80;2.05;;;15.50;99.90;;;;;;6312961;22;20060;-91
2021/06/30 05:03:48;;;;;;;3.42;1.73;;;15.50;99.90;;;;;;6312128;22;20735;-92
2021/06/30 05:06:14;;;;;;;2.42;1.75;;;15.40;99.90;;;;;;6311975;22;20006;-89
2021/06/30 05:08:40;;;;;;;3.17;2.15;;;15.40;99.90;;;;;;6315530;22;20030;-94
2021/06/30 05:11:05;;;;;;;3.33;2.08;;;15.40;99.90;;;;;;6318488;22;20003;-92
2021/06/30 05:13:31;;;;;;;2.17;1.98;;;15.30;99.90;;;;;;6313335;22;20003;-94
2021/06/30 05:15:57;;;;;;;2.80;1.67;;;15.40;99.90;;;;;;6314266;22;20329;-93
2021/06/30 05:18:22;;;;;;;3.55;2.28;;;15.40;99.90;;;;;;6313260;22;20017;-92
2021/06/30 05:20:48;;;;;;;3.63;2.00;;;15.40;99.90;;;;;;6315921;22;20421;-92
2021/06/30 05:23:14;;;;;;;2.63;2.17;;;15.40;99.90;;;;;;6312627;22;20098;-89
2021/06/30 05:25:40;;;;;;;3.05;2.00;;;15.40;99.90;;;;;;6311071;22;20018;-88
2021/06/30 05:28:06;;;;;;;3.58;2.58;;;15.30;99.90;;;;;;6310758;22;20027;-90
2021/06/30 05:30:32;;;;;;;2.88;2.17;;;15.40;99.90;;;;;;6313882;22;20617;-91
2021/06/30 05:32:57;;;;;;;4.05;2.72;;;15.40;99.90;;;;;;6319189;22;20014;-92
2021/06/30 05:35:23;;;;;;;2.90;2.38;;;15.40;99.90;;;;;;6314772;22;19999;-91
2021/06/30 05:37:49;;;;;;;2.90;2.33;;;15.40;99.90;;;;;;6309817;22;20011;-92
2021/06/30 05:40:15;;;;;;;3.10;2.30;;;15.30;99.90;;;;;;6309533;22;20428;-92
2021/06/30 05:42:42;;;;;;;2.90;2.35;;;15.40;99.90;;;;;;6312567;22;20017;-92
2021/06/30 05:45:10;;;;;;;3.83;2.28;;;15.40;99.90;;;;;;6311548;22;20014;-92
2021/06/30 05:47:35;;;;;;;3.05;2.15;;;15.30;99.90;;;;;;6312097;22;20010;-91
2021/06/30 05:50:01;;;;;;;4.97;2.92;;;15.40;99.90;;;;;;6312431;22;20003;-91
2021/06/30 05:52:27;;;;;;;3.08;2.47;;;15.40;99.90;;;;;;6309176;22;20003;-92
2021/06/30 05:54:52;;;;;;;4.30;2.85;;;15.40;99.90;;;;;;6318010;22;20094;-92
2021/06/30 05:57:18;;;;;;;3.80;2.58;;;15.30;99.90;;;;;;6310956;22;20003;-90
2021/06/30 05:59:44;;;;;;;3.78;2.92;;;15.40;99.90;;;;;;6310999;22;20006;-91
2021/06/30 06:02:09;;;;;;;3.50;2.72;;;15.40;99.90;;;;;;6312743;22;20022;-89
2021/06/30 06:04:35;;;;;;;3.45;2.33;;;15.30;99.90;;;;;;6312059;22;20007;-89
2021/06/30 06:07:00;;;;;;;4.13;2.50;;;15.30;99.90;;;;;;6311795;22;19998;-89
2021/06/30 06:09:26;;;;;;;4.13;2.85;;;15.30;99.90;;;;;;6312404;22;20357;-91
2021/06/30 06:11:52;;;;;;;5.15;2.80;;;15.40;99.90;;;;;;6312607;22;20447;-91
2021/06/30 06:14:17;;;;;;;4.15;2.58;;;15.40;99.90;;;;;;6312910;22;20017;-90
2021/06/30 06:16:43;;;;;;;4.93;2.78;;;15.40;99.90;;;;;;6312835;22;20010;-89
2021/06/30 06:19:08;;;;;;;3.30;2.08;;;15.40;99.90;;;;;;6313070;22;20032;-91
2021/06/30 06:21:35;;;;;;;3.70;2.22;;;15.40;99.90;;;;;;6312501;22;20333;-91
2021/06/30 06:24:01;;;;;;;3.58;2.30;;;15.50;99.90;;;;;;6312614;22;20003;-91
2021/06/30 06:26:27;;;;;;;3.42;2.63;;;15.50;99.90;;;;;;6312447;22;20003;-90
2021/06/30 06:28:52;;;;;;;3.55;2.75;;;15.50;99.90;;;;;;6312160;22;20038;-92
2021/06/30 06:31:19;;;;;;;3.20;2.47;;;15.50;99.90;;;;;;6312465;22;20052;-92
2021/06/30 06:33:45;;;;;;;3.33;2.53;;;15.50;99.90;;;;;;6312425;22;20089;-90
2021/06/30 06:36:13;;;;;;;3.83;2.70;;;15.60;99.90;;;;;;6340141;22;19998;-90
2021/06/30 06:38:39;;;;;;;3.63;2.65;;;15.60;99.90;;;;;;6313266;22;20006;-90
2021/06/30 06:41:05;;;;;;;3.72;2.70;;;15.60;99.90;;;;;;6312515;22;20014;-92
2021/06/30 06:43:34;;;;;;;4.38;2.90;;;15.60;99.90;;;;;;6311769;22;20011;-92
2021/06/30 06:46:01;;;;;;;3.08;2.38;;;15.60;99.90;;;;;;6312881;22;19999;-91
2021/06/30 06:48:26;;;;;;;3.45;2.53;;;15.50;99.90;;;;;;6312530;22;20007;-90
2021/06/30 06:50:52;;;;;;;3.67;2.47;;;15.50;99.90;;;;;;6312495;22;20003;-91
2021/06/30 06:53:18;;;;;;;3.20;2.20;;;15.60;99.90;;;;;;6314397;22;20381;-91
2021/06/30 06:55:43;;;;;;;2.70;2.10;;;15.50;99.90;;;;;;6313174;22;19999;-91
2021/06/30 06:58:09;;;;;;;3.38;2.42;;;15.60;99.90;;;;;;6312290;22;20010;-92
2021/06/30 07:00:35;;;;;;;3.30;2.30;;;15.70;99.90;;;;;;6312658;22;20008;-91
2021/06/30 07:03:01;;;;;;;3.35;2.42;;;15.70;99.90;;;;;;6312474;22;20014;-92
2021/06/30 07:05:27;;;;;;;2.50;2.03;;;15.70;99.90;;;;;;6312358;22;20128;-90
2021/06/30 07:07:53;;;;;;;2.85;2.20;;;15.70;99.90;;;;;;6312741;22;20021;-91
2021/06/30 07:10:19;;;;;;;2.63;2.10;;;15.80;99.90;;;;;;6312147;22;20014;-91
2021/06/30 07:12:44;;;;;;;3.00;2.25;;;15.80;99.90;;;;;;6312273;22;20006;-90
2021/06/30 07:15:11;;;;;;;2.75;2.10;;;15.90;99.90;;;;;;6312336;22;20009;-90
2021/06/30 07:17:38;;;;;;;2.85;2.22;;;15.90;99.90;;;;;;6312980;22;20026;-89
2021/06/30 07:20:08;;;;;;;3.05;2.40;;;15.80;99.90;;;;;;6311969;22;20007;-90
2021/06/30 07:22:34;;;;;;;2.97;2.40;;;15.80;99.90;;;;;;6311467;22;20011;-90
2021/06/30 07:24:59;;;;;;;3.58;2.42;;;15.80;99.90;;;;;;6311911;22;20386;-89
2021/06/30 07:27:25;;;;;;;2.72;2.20;;;15.90;99.90;;;;;;6311424;22;20018;-90
2021/06/30 07:29:51;;;;;;;3.22;2.15;;;16.00;99.90;;;;;;6311965;22;20011;-90
2021/06/30 07:32:17;;;;;;;3.38;2.85;;;16.10;99.90;;;;;;6312029;22;20014;-90
2021/06/30 07:34:42;;;;;;;2.85;2.55;;;16.10;99.90;;;;;;6312121;22;20006;-89
2021/06/30 07:37:08;;;;;;;3.67;2.80;;;16.10;99.90;;;;;;6311819;22;20452;-89
2021/06/30 07:39:35;;;;;;;4.03;2.58;;;16.20;99.90;;;;;;6312254;22;20002;-89
2021/06/30 07:42:01;;;;;;;3.25;2.63;;;16.40;99.90;;;;;;6311967;22;20011;-90
2021/06/30 07:44:27;;;;;;;2.90;2.45;;;16.50;99.90;;;;;;6312038;22;19999;-91
2021/06/30 07:46:52;;;;;;;2.90;2.35;;;16.50;99.90;;;;;;6312007;22;20009;-91
2021/06/30 07:49:18;;;;;;;4.25;2.83;;;16.50;99.90;;;;;;6311731;22;20003;-91
2021/06/30 07:51:45;;;;;;;4.13;2.78;;;16.60;99.90;;;;;;6311254;22;20302;-90
2021/06/30 07:54:10;;;;;;;3.58;2.78;;;16.60;99.90;;;;;;6311442;22;20452;-88
2021/06/30 07:56:36;;;;;;;3.13;2.35;;;16.60;99.90;;;;;;6313260;22;20007;-89
2021/06/30 07:59:07;;;;;;;2.63;2.20;;;16.70;99.90;;;;;;6313249;22;20003;-88
2021/06/30 08:01:33;;;;;;;3.22;2.38;;;16.60;99.90;;;;;;6341168;22;20014;-89
2021/06/30 08:04:00;;;;;;;2.72;2.28;;;16.60;99.90;;;;;;6313670;22;20029;-88
2021/06/30 08:06:26;;;;;;;4.30;2.60;;;16.70;99.90;;;;;;6314211;22;20421;-91
2021/06/30 08:08:51;;;;;;;3.80;2.63;;;16.70;99.90;;;;;;6312909;22;20068;-89
2021/06/30 08:11:18;;;;;;;4.60;2.90;;;16.80;99.90;;;;;;6313028;22;20353;-89
2021/06/30 08:13:43;;;;;;;2.95;2.47;;;16.80;99.90;;;;;;6313734;22;20428;-89
2021/06/30 08:16:09;;;;;;;6.13;3.20;;;16.80;99.90;;;;;;6313678;22;20002;-90
2021/06/30 08:18:35;;;;;;;4.28;3.45;;;16.80;99.90;;;;;;6313047;22;20484;-88
2021/06/30 08:21:01;;;;;;;4.28;3.10;;;16.70;99.90;;;;;;6312235;22;20041;-90
2021/06/30 08:23:28;;;;;;;3.50;2.90;;;16.60;99.90;;;;;;6312678;22;20029;-91
2021/06/30 08:25:54;;;;;;;3.15;2.65;;;16.60;99.90;;;;;;6312526;22;20045;-90
2021/06/30 08:28:23;;;;;;;3.38;2.58;;;16.50;99.90;;;;;;6312761;22;20023;-89
2021/06/30 08:30:50;;;;;;;4.57;3.15;;;16.50;99.90;;;;;;6313417;22;19999;-89
2021/06/30 08:33:16;;;;;;;4.13;2.72;;;16.40;99.90;;;;;;6313053;22;20013;-87
2021/06/30 08:35:41;;;;;;;3.22;2.53;;;16.40;99.90;;;;;;6340015;22;20087;-88
2021/06/30 08:38:08;;;;;;;4.10;3.03;;;16.40;99.90;;;;;;6313024;22;20428;-89
2021/06/30 08:40:36;;;;;;;4.95;3.03;;;16.50;99.90;;;;;;6313243;22;20004;-90
2021/06/30 08:43:01;;;;;;;3.63;3.08;;;16.40;99.90;;;;;;6313265;22;20021;-89
2021/06/30 08:45:27;;;;;;;3.20;2.90;;;16.50;99.90;;;;;;6313360;22;19999;-88
2021/06/30 08:47:57;;;;;;;3.60;3.17;;;16.50;99.90;;;;;;6311658;22;20021;-90
2021/06/30 08:50:24;;;;;;;3.38;2.80;;;16.50;99.90;;;;;;6339663;22;20033;-88
2021/06/30 08:52:51;;;;;;;4.10;3.38;;;16.60;99.90;;;;;;6308333;22;20003;-88
2021/06/30 08:55:18;;;;;;;3.85;3.08;;;16.50;99.90;;;;;;6311199;22;20044;-88
2021/06/30 08:57:46;;;;;;;3.85;2.90;;;16.50;99.90;;;;;;6309781;22;20367;-87
2021/06/30 09:00:16;;;;;;;3.88;2.95;;;16.50;99.90;;;;;;6312831;22;20121;-88
2021/06/30 09:02:43;;;;;;;3.22;2.70;;;16.60;99.90;;;;;;6313105;22;20086;-88
2021/06/30 09:07:40;;;;;;;3.10;2.60;;;16.70;99.90;;;;;;6340383;22;20017;-88
2021/06/30 09:10:07;;;;;;;3.33;2.88;;;16.70;99.90;;;;;;6313351;22;20034;-89
2021/06/30 09:12:41;;;;;;;3.22;2.53;;;16.80;99.90;;;;;;6312169;22;20006;-89
2021/06/30 09:15:20;;;;;;;3.88;2.85;;;16.80;99.90;;;;;;6312552;22;20006;-89
2021/06/30 09:17:47;;;;;;;3.40;3.03;;;16.70;99.90;;;;;;6312192;22;20042;-89
2021/06/30 09:20:14;;;;;;;3.38;3.00;;;16.60;99.90;;;;;;6312564;22;20029;-90
2021/06/30 09:22:51;;;;;;;3.47;2.78;;;16.60;99.90;;;;;;6311526;22;20101;-89
2021/06/30 09:25:31;;;;;;;3.45;2.53;;;16.50;99.90;;;;;;6311156;22;20003;-89
2021/06/30 09:27:57;;;;;;;3.33;2.63;;;16.60;99.90;;;;;;6311889;22;20022;-89
2021/06/30 09:30:23;;;;;;;3.03;2.60;;;16.70;99.90;;;;;;6313782;22;20006;-89
2021/06/30 09:33:01;;;;;;;2.90;2.30;;;16.80;99.90;;;;;;6313734;22;20068;-90
2021/06/30 09:35:33;;;;;;;2.95;2.35;;;16.90;99.90;;;;;;6312241;22;19999;-88
2021/06/30 09:38:19;;;;;;;2.53;2.03;;;17.00;99.90;;;;;;6312690;22;20011;-90
2021/06/30 09:40:46;;;;;;;2.30;1.83;;;17.10;99.90;;;;;;6311668;22;19999;-90
2021/06/30 09:43:29;;;;;;;2.67;2.00;;;17.10;99.90;;;;;;6311962;22;20042;-90
2021/06/30 09:45:57;;;;;;;3.10;2.53;;;17.10;99.90;;;;;;6312227;22;20003;-89
2021/06/30 09:48:27;;;;;;;2.50;2.20;;;17.00;99.90;;;;;;6312316;22;20140;-89
2021/06/30 09:50:53;;;;;;;3.03;2.35;;;17.00;99.90;;;;;;6313054;22;20053;-89
2021/06/30 09:53:36;;;;;;;2.83;2.22;;;16.90;99.90;;;;;;6312374;22;20095;-90
2021/06/30 09:56:12;;;;;;;3.03;2.28;;;16.90;99.90;;;;;;6340487;22;20007;-91
2021/06/30 09:58:38;;;;;;;3.90;2.35;;;16.90;99.90;;;;;;6312854;22;20017;-91
2021/06/30 10:01:15;;;;;;;3.22;2.40;;;16.90;99.90;;;;;;6312323;22;20086;-90
2021/06/30 10:03:41;;;;;;;3.75;3.00;;;16.90;99.90;;;;;;6312462;22;20017;-89
2021/06/30 10:06:27;;;;;;;3.38;2.50;;;16.90;99.90;;;;;;6311822;22;20035;-91
2021/06/30 10:08:55;;;;;;;2.63;2.20;;;16.90;99.90;;;;;;6312658;22;20094;-92
2021/06/30 10:11:21;;;;;;;2.80;2.17;;;16.90;99.90;;;;;;6312443;22;20034;-90
2021/06/30 10:13:48;;;;;;;2.45;2.25;;;16.90;99.90;;;;;;6311899;22;20002;-88
2021/06/30 10:16:17;;;;;;;2.63;2.40;;;16.90;99.90;;;;;;6310072;22;20011;-88
2021/06/30 10:18:44;;;;;;;3.38;2.50;;;17.00;99.90;;;;;;6309334;22;20466;-87
2021/06/30 10:21:30;;;;;;;2.67;2.03;;;16.90;99.90;;;;;;6310360;22;20455;-93
2021/06/30 10:24:04;;;;;;;3.13;2.42;;;17.00;99.90;;;;;;6312727;22;20003;-92
2021/06/30 10:26:53;;;;;;;2.92;2.47;;;17.10;99.90;;;;;;6315469;22;20007;-94
2021/06/30 10:29:28;;;;;;;3.13;2.58;;;17.20;99.90;;;;;;6313160;22;20045;-92
2021/06/30 10:32:06;;;;;;;3.78;2.97;;;17.20;99.90;;;;;;6312948;22;20451;-90
2021/06/30 10:34:37;;;;;;;3.40;2.83;;;17.20;99.90;;;;;;6310147;22;19999;-91
2021/06/30 10:37:21;;;;;;;3.28;2.50;;;17.30;99.90;;;;;;6285809;22;20011;-91
2021/06/30 10:40:03;;;;;;;3.53;2.70;;;17.50;99.90;;;;;;6311585;22;20072;-92
2021/06/30 10:42:47;;;;;;;3.10;2.67;;;17.50;99.90;;;;;;6311313;22;20052;-92
2021/06/30 10:45:13;;;;;;;4.65;2.80;;;17.40;99.90;;;;;;6313130;22;20597;-91
2021/06/30 10:47:47;;;;;;;3.30;2.90;;;17.40;99.90;;;;;;6313947;22;20030;-91
2021/06/30 10:50:28;;;;;;;3.65;3.10;;;17.50;99.90;;;;;;6314480;22;20363;-91
2021/06/30 10:52:58;;;;;;;3.80;3.35;;;17.60;99.90;;;;;;6313978;22;20014;-91
2021/06/30 10:55:41;;;;;;;3.85;3.00;;;17.70;99.90;;;;;;6313255;22;20010;-90
2021/06/30 10:58:17;;;;;;;4.57;3.47;;;17.80;99.90;;;;;;6313012;22;20014;-91
2021/06/30 11:01:08;;;;;;;3.63;2.97;;;18.00;99.90;;;;;;6313332;22;20052;-92
2021/06/30 11:04:01;;;;;;;4.78;3.40;;;18.10;99.90;;;;;;6313225;22;20456;-91
2021/06/30 11:06:29;;;;;;;4.50;3.15;;;18.20;99.90;;;;;;6311902;22;20009;-91
2021/06/30 11:09:24;;;;;;;4.13;2.80;;;18.30;99.90;;;;;;6312037;22;20006;-90
2021/06/30 11:12:16;;;;;;;4.38;3.20;;;18.50;99.90;;;;;;6313019;22;20037;-91
2021/06/30 11:14:46;;;;;;;4.07;3.20;;;18.60;99.90;;;;;;6312521;22;19995;-91
2021/06/30 11:17:30;;;;;;;4.03;3.30;;;18.50;99.90;;;;;;6312774;22;20010;-90
2021/06/30 11:20:08;;;;;;;3.90;3.25;;;18.40;99.90;;;;;;6311874;22;20035;-90
2021/06/30 11:22:49;;;;;;;5.15;3.67;;;18.20;99.90;;;;;;6311720;22;20022;-92
2021/06/30 11:25:24;;;;;;;4.47;3.70;;;18.20;99.90;;;;;;6312544;22;19999;-90
2021/06/30 11:27:50;;;;;;;3.75;3.35;;;18.10;99.90;;;;;;6311722;22;20253;-90
2021/06/30 11:30:28;;;;;;;4.05;3.33;;;18.10;99.90;;;;;;6312986;22;20421;-90
2021/06/30 11:32:54;;;;;;;5.10;4.03;;;18.30;99.90;;;;;;6314594;22;20048;-90
2021/06/30 11:35:23;;;;;;;5.50;4.43;;;18.30;99.90;;;;;;6314479;22;20002;-90
2021/06/30 11:38:16;;;;;;;5.85;5.32;;;18.30;99.90;;;;;;6314291;22;20089;-92
2021/06/30 11:40:55;;;;;;;5.82;5.00;;;18.20;99.90;;;;;;6308840;22;20102;-89
2021/06/30 11:43:26;;;;;;;6.65;5.22;;;17.90;99.90;;;;;;6313527;22;20019;-90
2021/06/30 11:45:53;;;;;;;5.32;4.82;;;17.60;99.90;;;;;;6313734;22;20006;-90
2021/06/30 11:48:19;;;;;;;6.20;5.20;;;17.50;99.90;;;;;;6314448;22;20002;-91
2021/06/30 11:50:44;;;;;;;6.28;5.40;;;17.40;99.90;;;;;;6314881;22;20009;-90
2021/06/30 11:53:10;;;;;;;6.20;5.40;;;17.30;99.90;;;;;;6313492;22;20006;-89
2021/06/30 11:55:39;;;;;;;5.28;4.78;;;17.30;99.90;;;;;;6312881;22;20094;-89
2021/06/30 11:58:06;;;;;;;6.68;5.90;;;17.30;99.90;;;;;;6289474;22;20014;-92
2021/06/30 12:00:34;;;;;;;7.28;5.47;;;17.40;99.90;;;;;;6315114;22;20002;-92
2021/06/30 12:03:17;;;;;;;6.53;5.60;;;17.40;99.90;;;;;;6313617;22;20014;-90
2021/06/30 12:05:42;;;;;;;7.13;5.80;;;17.50;99.90;;;;;;6314271;22;20010;-90
2021/06/30 12:08:09;;;;;;;8.48;5.88;;;17.40;99.90;;;;;;6314730;22;20040;-90
2021/06/30 12:10:37;;;;;;;6.57;5.72;;;17.40;99.90;;;;;;6315875;22;20011;-93
2021/06/30 12:13:03;;;;;;;6.13;5.53;;;17.30;99.90;;;;;;6314196;22;20943;-91
2021/06/30 12:15:29;;;;;;;6.25;5.65;;;17.30;99.90;;;;;;6313209;22;20025;-91
2021/06/30 12:17:57;;;;;;;7.13;5.90;;;17.20;99.90;;;;;;6313478;22;20433;-92
2021/06/30 12:20:26;;;;;;;6.13;5.22;;;17.20;99.90;;;;;;6342009;22;20003;-91
2021/06/30 12:23:03;;;;;;;7.18;6.25;;;17.20;99.90;;;;;;6314436;22;20781;-92
2021/06/30 12:25:30;;;;;;;8.15;5.75;;;17.20;99.90;;;;;;6313814;22;19995;-88
2021/06/30 12:28:05;;;;;;;6.43;5.68;;;17.20;99.90;;;;;;6313644;22;20021;-90
2021/06/30 12:30:37;;;;;;;7.45;6.07;;;17.20;99.90;;;;;;6312204;22;20006;-91
2021/06/30 12:33:14;;;;;;;6.82;5.75;;;17.20;99.90;;;;;;6311282;22;20041;-89
2021/06/30 12:35:49;;;;;;;7.00;6.30;;;17.20;99.90;;;;;;6313623;22;20474;-90
2021/06/30 12:38:31;;;;;;;6.00;5.40;;;17.10;99.90;;;;;;6311474;22;20007;-91
2021/06/30 12:41:08;;;;;;;6.45;5.68;;;17.20;99.90;;;;;;6310150;22;20003;-91
2021/06/30 12:43:34;;;;;;;6.18;5.30;;;17.20;99.90;;;;;;6311117;22;20103;-91
2021/06/30 12:46:02;;;;;;;6.80;5.70;;;17.30;99.90;;;;;;6310838;22;20003;-91
2021/06/30 12:48:33;;;;;;;6.90;5.28;;;17.30;99.90;;;;;;6309958;22;20082;-90
2021/06/30 12:51:10;;;;;;;6.88;5.82;;;17.30;99.90;;;;;;6309809;22;19995;-90
2021/06/30 12:53:38;;;;;;;7.28;5.70;;;17.30;99.90;;;;;;6310474;22;20012;-90
2021/06/30 12:56:13;;;;;;;7.85;5.95;;;17.20;99.90;;;;;;6309240;22;19999;-91
2021/06/30 12:58:44;;;;;;;6.82;6.05;;;17.20;99.90;;;;;;6311375;22;20003;-91